Pouch Cove, Canada
Current Conditions -  °F | °C
As of 2:19 PM on Saturday 25 Oct 2014 (Local Time) from CYYT Reporting Station
Rain Showers Rain Showers  
Wind Chill: 43°   Ceiling: 600
Heat Index: 48°   Visibility: 2mi
Dew Point: 48°   Wind: 12mph
Humidity: 100%   Direction: 60°ENE
Pressure: 29.39"   Gusts: 18mph
Location:  47.76°N, 52.76°W
Report Text: CYYT 251619Z 06010G16KT 2SM SHRA BR OVC006 09/09 A2939 RMK FG4SF4 SLP954
Loading
Personal Weather Stations






























Interactive Weather Map
Tropical Storm Tracking
New forecast layout! Learn more

10-Day Weather Forecast

Advertisements
Track Severe Weather on mobile